sensor_id;sensor_type;location;lat;lon;timestamp;P1;durP1;ratioP1;P2;durP2;ratioP2
65613;SDS011;52283;49.292;10.572;2023-04-24T00:01:22;1.50;;;0.40;;
65613;SDS011;52283;49.292;10.572;2023-04-24T00:03:49;0.60;;;0.40;;
65613;SDS011;52283;49.292;10.572;2023-04-24T00:06:15;1.17;;;0.35;;
65613;SDS011;52283;49.292;10.572;2023-04-24T00:08:44;2.58;;;0.40;;
65613;SDS011;52283;49.292;10.572;2023-04-24T00:11:10;0.40;;;0.40;;
65613;SDS011;52283;49.292;10.572;2023-04-24T00:13:37;0.75;;;0.32;;
65613;SDS011;52283;49.292;10.572;2023-04-24T00:16:04;2.47;;;0.32;;
65613;SDS011;52283;49.292;10.572;2023-04-24T00:18:31;0.43;;;0.30;;
65613;SDS011;52283;49.292;10.572;2023-04-24T00:20:57;1.20;;;0.50;;
65613;SDS011;52283;49.292;10.572;2023-04-24T00:23:24;1.13;;;0.38;;
65613;SDS011;52283;49.292;10.572;2023-04-24T00:25:52;0.30;;;0.30;;
65613;SDS011;52283;49.292;10.572;2023-04-24T00:28:18;0.20;;;0.20;;
65613;SDS011;52283;49.292;10.572;2023-04-24T00:30:45;0.40;;;0.30;;
65613;SDS011;52283;49.292;10.572;2023-04-24T00:33:11;0.52;;;0.40;;
65613;SDS011;52283;49.292;10.572;2023-04-24T00:35:37;0.70;;;0.20;;
65613;SDS011;52283;49.292;10.572;2023-04-24T00:38:04;0.85;;;0.30;;
65613;SDS011;52283;49.292;10.572;2023-04-24T00:40:31;0.75;;;0.35;;
65613;SDS011;52283;49.292;10.572;2023-04-24T00:42:59;1.75;;;0.30;;
65613;SDS011;52283;49.292;10.572;2023-04-24T00:45:25;1.67;;;0.35;;
65613;SDS011;52283;49.292;10.572;2023-04-24T00:47:52;0.52;;;0.35;;
65613;SDS011;52283;49.292;10.572;2023-04-24T00:50:20;0.47;;;0.30;;
65613;SDS011;52283;49.292;10.572;2023-04-24T00:52:47;2.03;;;0.40;;
65613;SDS011;52283;49.292;10.572;2023-04-24T00:55:13;0.25;;;0.25;;
65613;SDS011;52283;49.292;10.572;2023-04-24T00:57:40;0.30;;;0.30;;
65613;SDS011;52283;49.292;10.572;2023-04-24T01:00:09;1.83;;;0.32;;
65613;SDS011;52283;49.292;10.572;2023-04-24T01:02:37;0.40;;;0.40;;
65613;SDS011;52283;49.292;10.572;2023-04-24T01:05:09;0.60;;;0.40;;
65613;SDS011;52283;49.292;10.572;2023-04-24T01:07:36;0.40;;;0.30;;
65613;SDS011;52283;49.292;10.572;2023-04-24T01:10:04;0.60;;;0.40;;
65613;SDS011;52283;49.292;10.572;2023-04-24T01:12:32;3.25;;;0.73;;
65613;SDS011;52283;49.292;10.572;2023-04-24T01:14:58;1.02;;;0.70;;
65613;SDS011;52283;49.292;10.572;2023-04-24T01:17:27;1.08;;;0.40;;
65613;SDS011;52283;49.292;10.572;2023-04-24T01:19:53;0.70;;;0.40;;
65613;SDS011;52283;49.292;10.572;2023-04-24T01:22:23;2.25;;;0.47;;
65613;SDS011;52283;49.292;10.572;2023-04-24T01:24:49;0.90;;;0.50;;
65613;SDS011;52283;49.292;10.572;2023-04-24T01:27:16;1.73;;;0.68;;
65613;SDS011;52283;49.292;10.572;2023-04-24T01:29:42;3.55;;;0.70;;
65613;SDS011;52283;49.292;10.572;2023-04-24T01:32:08;0.77;;;0.75;;
65613;SDS011;52283;49.292;10.572;2023-04-24T01:34:35;0.60;;;0.60;;
65613;SDS011;52283;49.292;10.572;2023-04-24T01:37:03;0.95;;;0.50;;
65613;SDS011;52283;49.292;10.572;2023-04-24T01:39:31;2.50;;;0.80;;
65613;SDS011;52283;49.292;10.572;2023-04-24T01:41:58;0.90;;;0.60;;
65613;SDS011;52283;49.292;10.572;2023-04-24T01:44:25;2.20;;;0.60;;
65613;SDS011;52283;49.292;10.572;2023-04-24T01:46:52;1.85;;;0.60;;
65613;SDS011;52283;49.292;10.572;2023-04-24T01:49:20;0.85;;;0.40;;
65613;SDS011;52283;49.292;10.572;2023-04-24T01:51:47;1.75;;;0.40;;
65613;SDS011;52283;49.292;10.572;2023-04-24T01:54:13;0.38;;;0.38;;
65613;SDS011;52283;49.292;10.572;2023-04-24T01:56:41;2.88;;;0.47;;
65613;SDS011;52283;49.292;10.572;2023-04-24T01:59:09;1.25;;;0.40;;
65613;SDS011;52283;49.292;10.572;2023-04-24T02:01:36;0.95;;;0.55;;
65613;SDS011;52283;49.292;10.572;2023-04-24T02:04:04;4.00;;;0.63;;
65613;SDS011;52283;49.292;10.572;2023-04-24T02:06:32;0.57;;;0.50;;
65613;SDS011;52283;49.292;10.572;2023-04-24T02:08:58;0.75;;;0.50;;
65613;SDS011;52283;49.292;10.572;2023-04-24T02:11:26;1.13;;;0.50;;
65613;SDS011;52283;49.292;10.572;2023-04-24T02:13:54;1.42;;;0.55;;
65613;SDS011;52283;49.292;10.572;2023-04-24T02:16:20;0.80;;;0.45;;
65613;SDS011;52283;49.292;10.572;2023-04-24T02:18:47;0.85;;;0.60;;
65613;SDS011;52283;49.292;10.572;2023-04-24T02:21:13;2.38;;;0.52;;
65613;SDS011;52283;49.292;10.572;2023-04-24T02:23:40;0.38;;;0.30;;
65613;SDS011;52283;49.292;10.572;2023-04-24T02:26:06;0.60;;;0.30;;
65613;SDS011;52283;49.292;10.572;2023-04-24T02:28:33;0.40;;;0.40;;
65613;SDS011;52283;49.292;10.572;2023-04-24T02:31:00;2.63;;;0.43;;
65613;SDS011;52283;49.292;10.572;2023-04-24T02:33:27;0.30;;;0.30;;
65613;SDS011;52283;49.292;10.572;2023-04-24T02:35:53;0.75;;;0.30;;
65613;SDS011;52283;49.292;10.572;2023-04-24T02:38:20;2.83;;;0.38;;
65613;SDS011;52283;49.292;10.572;2023-04-24T02:40:46;0.93;;;0.40;;
65613;SDS011;52283;49.292;10.572;2023-04-24T02:43:13;1.02;;;0.45;;
65613;SDS011;52283;49.292;10.572;2023-04-24T02:45:39;1.40;;;0.38;;
65613;SDS011;52283;49.292;10.572;2023-04-24T02:48:07;1.80;;;0.65;;
65613;SDS011;52283;49.292;10.572;2023-04-24T02:50:33;2.63;;;0.40;;
65613;SDS011;52283;49.292;10.572;2023-04-24T02:53:00;1.13;;;0.50;;
65613;SDS011;52283;49.292;10.572;2023-04-24T02:55:26;0.80;;;0.52;;
65613;SDS011;52283;49.292;10.572;2023-04-24T02:57:53;1.48;;;0.60;;
65613;SDS011;52283;49.292;10.572;2023-04-24T03:00:19;2.17;;;0.57;;
65613;SDS011;52283;49.292;10.572;2023-04-24T03:02:46;3.67;;;0.50;;
65613;SDS011;52283;49.292;10.572;2023-04-24T03:05:15;1.85;;;0.50;;
65613;SDS011;52283;49.292;10.572;2023-04-24T03:07:42;0.70;;;0.50;;
65613;SDS011;52283;49.292;10.572;2023-04-24T03:10:08;1.25;;;0.60;;
65613;SDS011;52283;49.292;10.572;2023-04-24T03:12:35;1.13;;;0.63;;
65613;SDS011;52283;49.292;10.572;2023-04-24T03:15:02;0.68;;;0.68;;
65613;SDS011;52283;49.292;10.572;2023-04-24T03:17:29;1.95;;;0.40;;
65613;SDS011;52283;49.292;10.572;2023-04-24T03:19:55;1.20;;;1.05;;
65613;SDS011;52283;49.292;10.572;2023-04-24T03:22:23;0.40;;;0.40;;
65613;SDS011;52283;49.292;10.572;2023-04-24T03:24:49;8.48;;;0.85;;
65613;SDS011;52283;49.292;10.572;2023-04-24T03:27:16;0.60;;;0.52;;
65613;SDS011;52283;49.292;10.572;2023-04-24T03:29:42;1.85;;;0.50;;
65613;SDS011;52283;49.292;10.572;2023-04-24T03:32:09;1.83;;;1.23;;
65613;SDS011;52283;49.292;10.572;2023-04-24T03:34:35;2.05;;;0.40;;
65613;SDS011;52283;49.292;10.572;2023-04-24T03:37:02;2.75;;;0.50;;
65613;SDS011;52283;49.292;10.572;2023-04-24T03:39:29;1.40;;;0.50;;
65613;SDS011;52283;49.292;10.572;2023-04-24T03:41:56;1.35;;;0.65;;
65613;SDS011;52283;49.292;10.572;2023-04-24T03:44:22;0.70;;;0.68;;
65613;SDS011;52283;49.292;10.572;2023-04-24T03:46:49;3.85;;;0.47;;
65613;SDS011;52283;49.292;10.572;2023-04-24T03:49:15;0.60;;;0.50;;
65613;SDS011;52283;49.292;10.572;2023-04-24T03:51:42;0.60;;;0.60;;
65613;SDS011;52283;49.292;10.572;2023-04-24T03:54:08;2.50;;;0.60;;
65613;SDS011;52283;49.292;10.572;2023-04-24T03:56:36;0.70;;;0.70;;
65613;SDS011;52283;49.292;10.572;2023-04-24T03:59:02;0.40;;;0.40;;
65613;SDS011;52283;49.292;10.572;2023-04-24T04:01:29;1.33;;;0.70;;
65613;SDS011;52283;49.292;10.572;2023-04-24T04:03:56;0.85;;;0.40;;
65613;SDS011;52283;49.292;10.572;2023-04-24T04:06:22;2.67;;;0.45;;
65613;SDS011;52283;49.292;10.572;2023-04-24T04:08:49;1.13;;;0.50;;
65613;SDS011;52283;49.292;10.572;2023-04-24T04:11:15;1.88;;;0.60;;
65613;SDS011;52283;49.292;10.572;2023-04-24T04:13:43;1.35;;;0.47;;
65613;SDS011;52283;49.292;10.572;2023-04-24T04:16:10;2.45;;;0.80;;
65613;SDS011;52283;49.292;10.572;2023-04-24T04:18:37;1.77;;;0.43;;
65613;SDS011;52283;49.292;10.572;2023-04-24T04:21:04;2.30;;;0.68;;
65613;SDS011;52283;49.292;10.572;2023-04-24T04:23:30;3.80;;;0.40;;
65613;SDS011;52283;49.292;10.572;2023-04-24T04:25:57;1.17;;;0.50;;
65613;SDS011;52283;49.292;10.572;2023-04-24T04:28:23;1.52;;;0.50;;
65613;SDS011;52283;49.292;10.572;2023-04-24T04:30:51;4.50;;;1.00;;
65613;SDS011;52283;49.292;10.572;2023-04-24T04:33:18;5.25;;;0.82;;
65613;SDS011;52283;49.292;10.572;2023-04-24T04:35:45;2.58;;;0.68;;
65613;SDS011;52283;49.292;10.572;2023-04-24T04:38:13;0.32;;;0.32;;
65613;SDS011;52283;49.292;10.572;2023-04-24T04:40:40;1.27;;;0.50;;
65613;SDS011;52283;49.292;10.572;2023-04-24T04:43:06;0.70;;;0.40;;
65613;SDS011;52283;49.292;10.572;2023-04-24T04:45:33;1.48;;;0.65;;
65613;SDS011;52283;49.292;10.572;2023-04-24T04:48:01;0.57;;;0.40;;
65613;SDS011;52283;49.292;10.572;2023-04-24T04:50:28;2.00;;;0.77;;
65613;SDS011;52283;49.292;10.572;2023-04-24T04:52:55;0.88;;;0.55;;
65613;SDS011;52283;49.292;10.572;2023-04-24T04:55:21;1.02;;;0.50;;
65613;SDS011;52283;49.292;10.572;2023-04-24T04:57:48;1.80;;;0.80;;
65613;SDS011;52283;49.292;10.572;2023-04-24T05:00:14;2.58;;;0.50;;
65613;SDS011;52283;49.292;10.572;2023-04-24T05:02:41;0.98;;;0.57;;
65613;SDS011;52283;49.292;10.572;2023-04-24T05:05:09;1.60;;;0.60;;
65613;SDS011;52283;49.292;10.572;2023-04-24T05:07:36;2.85;;;0.80;;
65613;SDS011;52283;49.292;10.572;2023-04-24T05:10:02;4.15;;;1.60;;
65613;SDS011;52283;49.292;10.572;2023-04-24T05:12:29;2.30;;;1.10;;
65613;SDS011;52283;49.292;10.572;2023-04-24T05:14:56;1.45;;;0.70;;
65613;SDS011;52283;49.292;10.572;2023-04-24T05:17:22;0.82;;;0.60;;
65613;SDS011;52283;49.292;10.572;2023-04-24T05:19:49;0.95;;;0.57;;
65613;SDS011;52283;49.292;10.572;2023-04-24T05:22:17;0.77;;;0.70;;
65613;SDS011;52283;49.292;10.572;2023-04-24T05:24:45;2.70;;;0.68;;
65613;SDS011;52283;49.292;10.572;2023-04-24T05:27:12;1.90;;;0.68;;
65613;SDS011;52283;49.292;10.572;2023-04-24T05:29:39;1.05;;;0.60;;
65613;SDS011;52283;49.292;10.572;2023-04-24T05:32:05;0.43;;;0.32;;
65613;SDS011;52283;49.292;10.572;2023-04-24T05:34:32;4.18;;;0.60;;
65613;SDS011;52283;49.292;10.572;2023-04-24T05:36:58;0.63;;;0.40;;
65613;SDS011;52283;49.292;10.572;2023-04-24T05:39:26;2.05;;;0.73;;
65613;SDS011;52283;49.292;10.572;2023-04-24T05:41:53;2.00;;;0.52;;
65613;SDS011;52283;49.292;10.572;2023-04-24T05:44:20;0.65;;;0.50;;
65613;SDS011;52283;49.292;10.572;2023-04-24T05:46:46;1.83;;;0.50;;
65613;SDS011;52283;49.292;10.572;2023-04-24T05:49:12;1.98;;;0.50;;
65613;SDS011;52283;49.292;10.572;2023-04-24T05:51:39;0.50;;;0.40;;
65613;SDS011;52283;49.292;10.572;2023-04-24T05:54:06;0.88;;;0.60;;
65613;SDS011;52283;49.292;10.572;2023-04-24T05:56:34;0.30;;;0.30;;
65613;SDS011;52283;49.292;10.572;2023-04-24T05:59:00;2.33;;;0.47;;
65613;SDS011;52283;49.292;10.572;2023-04-24T06:01:27;0.77;;;0.30;;
65613;SDS011;52283;49.292;10.572;2023-04-24T06:03:53;2.17;;;0.52;;
65613;SDS011;52283;49.292;10.572;2023-04-24T06:06:19;0.65;;;0.35;;
65613;SDS011;52283;49.292;10.572;2023-04-24T06:08:46;2.05;;;0.30;;
65613;SDS011;52283;49.292;10.572;2023-04-24T06:11:12;0.32;;;0.32;;
65613;SDS011;52283;49.292;10.572;2023-04-24T06:13:40;1.23;;;0.32;;
65613;SDS011;52283;49.292;10.572;2023-04-24T06:16:06;1.30;;;0.20;;
65613;SDS011;52283;49.292;10.572;2023-04-24T06:18:33;2.35;;;0.20;;
65613;SDS011;52283;49.292;10.572;2023-04-24T06:21:00;0.38;;;0.30;;
65613;SDS011;52283;49.292;10.572;2023-04-24T06:23:27;0.30;;;0.20;;
65613;SDS011;52283;49.292;10.572;2023-04-24T06:25:54;0.40;;;0.40;;
65613;SDS011;52283;49.292;10.572;2023-04-24T06:28:20;1.00;;;0.40;;
65613;SDS011;52283;49.292;10.572;2023-04-24T06:30:48;1.30;;;0.45;;
65613;SDS011;52283;49.292;10.572;2023-04-24T06:33:15;2.30;;;0.40;;
65613;SDS011;52283;49.292;10.572;2023-04-24T06:35:42;0.50;;;0.50;;
65613;SDS011;52283;49.292;10.572;2023-04-24T06:38:08;2.30;;;0.30;;
65613;SDS011;52283;49.292;10.572;2023-04-24T06:40:35;0.60;;;0.40;;
65613;SDS011;52283;49.292;10.572;2023-04-24T06:43:01;0.82;;;0.65;;
65613;SDS011;52283;49.292;10.572;2023-04-24T06:45:27;4.13;;;0.50;;
65613;SDS011;52283;49.292;10.572;2023-04-24T06:47:55;2.80;;;0.73;;
65613;SDS011;52283;49.292;10.572;2023-04-24T06:50:22;4.57;;;1.02;;
65613;SDS011;52283;49.292;10.572;2023-04-24T06:52:48;2.17;;;0.80;;
65613;SDS011;52283;49.292;10.572;2023-04-24T06:55:15;2.25;;;1.25;;
65613;SDS011;52283;49.292;10.572;2023-04-24T06:57:42;2.55;;;1.30;;
65613;SDS011;52283;49.292;10.572;2023-04-24T07:00:10;3.08;;;1.50;;
65613;SDS011;52283;49.292;10.572;2023-04-24T07:02:37;5.35;;;1.33;;
65613;SDS011;52283;49.292;10.572;2023-04-24T07:05:05;2.83;;;1.35;;
65613;SDS011;52283;49.292;10.572;2023-04-24T07:07:33;3.38;;;1.23;;
65613;SDS011;52283;49.292;10.572;2023-04-24T07:10:02;3.53;;;1.48;;
65613;SDS011;52283;49.292;10.572;2023-04-24T07:12:29;1.27;;;1.17;;
65613;SDS011;52283;49.292;10.572;2023-04-24T07:14:57;2.97;;;1.58;;
65613;SDS011;52283;49.292;10.572;2023-04-24T07:17:23;2.53;;;1.40;;
65613;SDS011;52283;49.292;10.572;2023-04-24T07:19:50;3.85;;;2.28;;
65613;SDS011;52283;49.292;10.572;2023-04-24T07:22:18;1.77;;;1.67;;
65613;SDS011;52283;49.292;10.572;2023-04-24T07:24:44;1.55;;;1.45;;
65613;SDS011;52283;49.292;10.572;2023-04-24T07:27:11;4.47;;;2.05;;
65613;SDS011;52283;49.292;10.572;2023-04-24T07:29:39;3.50;;;2.63;;
65613;SDS011;52283;49.292;10.572;2023-04-24T07:32:06;2.92;;;1.88;;
65613;SDS011;52283;49.292;10.572;2023-04-24T07:34:32;2.55;;;1.42;;
65613;SDS011;52283;49.292;10.572;2023-04-24T07:36:59;2.85;;;1.77;;
65613;SDS011;52283;49.292;10.572;2023-04-24T07:39:27;2.20;;;2.00;;
65613;SDS011;52283;49.292;10.572;2023-04-24T07:41:54;2.60;;;2.17;;
65613;SDS011;52283;49.292;10.572;2023-04-24T07:44:20;2.65;;;2.00;;
65613;SDS011;52283;49.292;10.572;2023-04-24T07:46:47;2.30;;;2.10;;
65613;SDS011;52283;49.292;10.572;2023-04-24T07:49:13;3.58;;;2.00;;
65613;SDS011;52283;49.292;10.572;2023-04-24T07:51:40;4.35;;;1.85;;
65613;SDS011;52283;49.292;10.572;2023-04-24T07:54:06;2.28;;;2.08;;
65613;SDS011;52283;49.292;10.572;2023-04-24T07:56:34;2.53;;;1.60;;
65613;SDS011;52283;49.292;10.572;2023-04-24T07:59:03;2.20;;;2.00;;
65613;SDS011;52283;49.292;10.572;2023-04-24T08:01:30;1.85;;;1.60;;
65613;SDS011;52283;49.292;10.572;2023-04-24T08:03:56;2.85;;;1.70;;
65613;SDS011;52283;49.292;10.572;2023-04-24T08:06:23;4.60;;;1.63;;
65613;SDS011;52283;49.292;10.572;2023-04-24T08:08:52;2.00;;;1.60;;
65613;SDS011;52283;49.292;10.572;2023-04-24T08:11:19;3.65;;;1.50;;
65613;SDS011;52283;49.292;10.572;2023-04-24T08:13:47;6.30;;;1.73;;
65613;SDS011;52283;49.292;10.572;2023-04-24T08:16:13;2.72;;;1.42;;
65613;SDS011;52283;49.292;10.572;2023-04-24T08:18:40;2.80;;;1.58;;
65613;SDS011;52283;49.292;10.572;2023-04-24T08:21:06;1.75;;;1.50;;
65613;SDS011;52283;49.292;10.572;2023-04-24T08:23:33;3.08;;;1.60;;
65613;SDS011;52283;49.292;10.572;2023-04-24T08:25:59;1.52;;;1.20;;
65613;SDS011;52283;49.292;10.572;2023-04-24T08:28:26;3.45;;;1.67;;
65613;SDS011;52283;49.292;10.572;2023-04-24T08:30:53;3.03;;;1.50;;
65613;SDS011;52283;49.292;10.572;2023-04-24T08:33:20;1.77;;;1.58;;
65613;SDS011;52283;49.292;10.572;2023-04-24T08:35:46;2.38;;;1.33;;
65613;SDS011;52283;49.292;10.572;2023-04-24T08:38:13;2.28;;;1.77;;
65613;SDS011;52283;49.292;10.572;2023-04-24T08:40:39;1.90;;;1.45;;
65613;SDS011;52283;49.292;10.572;2023-04-24T08:43:06;2.53;;;1.80;;
65613;SDS011;52283;49.292;10.572;2023-04-24T08:45:33;1.50;;;1.40;;
65613;SDS011;52283;49.292;10.572;2023-04-24T08:48:01;2.58;;;1.55;;
65613;SDS011;52283;49.292;10.572;2023-04-24T08:50:28;1.50;;;1.40;;
65613;SDS011;52283;49.292;10.572;2023-04-24T08:52:55;3.38;;;1.83;;
65613;SDS011;52283;49.292;10.572;2023-04-24T08:55:23;1.23;;;1.02;;
65613;SDS011;52283;49.292;10.572;2023-04-24T08:57:51;2.45;;;1.40;;
65613;SDS011;52283;49.292;10.572;2023-04-24T09:00:20;1.30;;;0.88;;
65613;SDS011;52283;49.292;10.572;2023-04-24T09:02:48;2.58;;;0.82;;
65613;SDS011;52283;49.292;10.572;2023-04-24T09:05:17;1.45;;;0.80;;
65613;SDS011;52283;49.292;10.572;2023-04-24T09:07:45;0.90;;;0.80;;
65613;SDS011;52283;49.292;10.572;2023-04-24T09:10:15;1.10;;;1.00;;
65613;SDS011;52283;49.292;10.572;2023-04-24T09:12:42;1.45;;;0.77;;
65613;SDS011;52283;49.292;10.572;2023-04-24T09:15:09;1.55;;;1.23;;
65613;SDS011;52283;49.292;10.572;2023-04-24T09:17:37;1.15;;;1.05;;
65613;SDS011;52283;49.292;10.572;2023-04-24T09:20:04;1.10;;;1.00;;
65613;SDS011;52283;49.292;10.572;2023-04-24T09:22:33;1.60;;;0.90;;
65613;SDS011;52283;49.292;10.572;2023-04-24T09:25:01;1.15;;;0.70;;
65613;SDS011;52283;49.292;10.572;2023-04-24T09:27:30;1.10;;;1.03;;
65613;SDS011;52283;49.292;10.572;2023-04-24T09:29:57;4.45;;;1.02;;
65613;SDS011;52283;49.292;10.572;2023-04-24T09:32:25;1.80;;;0.80;;
65613;SDS011;52283;49.292;10.572;2023-04-24T09:35:09;2.67;;;0.70;;
65613;SDS011;52283;49.292;10.572;2023-04-24T09:37:40;0.73;;;0.70;;
65613;SDS011;52283;49.292;10.572;2023-04-24T09:40:09;0.85;;;0.68;;
65613;SDS011;52283;49.292;10.572;2023-04-24T09:42:37;1.75;;;0.80;;
65613;SDS011;52283;49.292;10.572;2023-04-24T09:45:04;0.80;;;0.75;;
65613;SDS011;52283;49.292;10.572;2023-04-24T09:47:35;2.53;;;0.73;;
65613;SDS011;52283;49.292;10.572;2023-04-24T09:50:08;1.13;;;0.60;;
65613;SDS011;52283;49.292;10.572;2023-04-24T09:52:35;3.13;;;0.93;;
65613;SDS011;52283;49.292;10.572;2023-04-24T09:55:11;1.90;;;0.90;;
65613;SDS011;52283;49.292;10.572;2023-04-24T09:57:49;1.80;;;0.85;;
65613;SDS011;52283;49.292;10.572;2023-04-24T10:00:23;0.65;;;0.60;;
65613;SDS011;52283;49.292;10.572;2023-04-24T10:02:51;0.93;;;0.70;;
65613;SDS011;52283;49.292;10.572;2023-04-24T10:05:22;0.55;;;0.50;;
65613;SDS011;52283;49.292;10.572;2023-04-24T10:07:51;1.77;;;1.08;;
65613;SDS011;52283;49.292;10.572;2023-04-24T10:10:17;1.42;;;0.82;;
65613;SDS011;52283;49.292;10.572;2023-04-24T10:12:44;0.70;;;0.57;;
65613;SDS011;52283;49.292;10.572;2023-04-24T10:15:11;4.50;;;0.60;;
65613;SDS011;52283;49.292;10.572;2023-04-24T10:17:38;0.57;;;0.40;;
65613;SDS011;52283;49.292;10.572;2023-04-24T10:20:06;0.40;;;0.40;;
65613;SDS011;52283;49.292;10.572;2023-04-24T10:22:34;1.40;;;0.40;;
65613;SDS011;52283;49.292;10.572;2023-04-24T10:25:04;0.93;;;0.60;;
65613;SDS011;52283;49.292;10.572;2023-04-24T10:27:33;2.25;;;0.70;;
65613;SDS011;52283;49.292;10.572;2023-04-24T10:30:01;1.10;;;0.80;;
65613;SDS011;52283;49.292;10.572;2023-04-24T10:32:28;1.15;;;0.70;;
65613;SDS011;52283;49.292;10.572;2023-04-24T10:34:55;2.40;;;0.90;;
65613;SDS011;52283;49.292;10.572;2023-04-24T10:37:21;1.75;;;0.80;;
65613;SDS011;52283;49.292;10.572;2023-04-24T10:39:49;2.38;;;0.63;;
65613;SDS011;52283;49.292;10.572;2023-04-24T10:42:20;0.60;;;0.60;;
65613;SDS011;52283;49.292;10.572;2023-04-24T10:44:47;0.70;;;0.70;;
65613;SDS011;52283;49.292;10.572;2023-04-24T10:47:14;2.50;;;0.60;;
65613;SDS011;52283;49.292;10.572;2023-04-24T10:49:41;0.40;;;0.40;;
65613;SDS011;52283;49.292;10.572;2023-04-24T10:52:08;0.68;;;0.50;;
65613;SDS011;52283;49.292;10.572;2023-04-24T10:54:36;0.60;;;0.60;;
65613;SDS011;52283;49.292;10.572;2023-04-24T10:57:27;0.43;;;0.43;;
65613;SDS011;52283;49.292;10.572;2023-04-24T11:00:10;0.50;;;0.45;;
65613;SDS011;52283;49.292;10.572;2023-04-24T11:02:40;1.58;;;0.60;;
65613;SDS011;52283;49.292;10.572;2023-04-24T11:05:14;1.52;;;0.93;;
65613;SDS011;52283;49.292;10.572;2023-04-24T11:10:43;0.93;;;0.85;;
65613;SDS011;52283;49.292;10.572;2023-04-24T11:13:11;1.48;;;0.65;;
65613;SDS011;52283;49.292;10.572;2023-04-24T11:15:41;1.40;;;0.80;;
65613;SDS011;52283;49.292;10.572;2023-04-24T11:18:07;2.00;;;1.10;;
65613;SDS011;52283;49.292;10.572;2023-04-24T11:20:41;1.20;;;1.10;;
65613;SDS011;52283;49.292;10.572;2023-04-24T11:23:08;0.88;;;0.80;;
65613;SDS011;52283;49.292;10.572;2023-04-24T11:25:35;1.30;;;0.85;;
65613;SDS011;52283;49.292;10.572;2023-04-24T11:28:04;2.83;;;0.90;;
65613;SDS011;52283;49.292;10.572;2023-04-24T11:30:33;2.65;;;0.98;;
65613;SDS011;52283;49.292;10.572;2023-04-24T11:33:03;2.65;;;1.48;;
65613;SDS011;52283;49.292;10.572;2023-04-24T11:35:34;1.77;;;0.77;;
65613;SDS011;52283;49.292;10.572;2023-04-24T11:40:30;0.70;;;0.70;;
65613;SDS011;52283;49.292;10.572;2023-04-24T11:42:59;0.90;;;0.60;;
65613;SDS011;52283;49.292;10.572;2023-04-24T11:45:26;1.40;;;0.80;;
65613;SDS011;52283;49.292;10.572;2023-04-24T11:47:55;3.45;;;0.73;;
65613;SDS011;52283;49.292;10.572;2023-04-24T11:50:23;1.08;;;0.73;;
65613;SDS011;52283;49.292;10.572;2023-04-24T11:52:51;2.33;;;0.60;;
65613;SDS011;52283;49.292;10.572;2023-04-24T11:55:24;0.80;;;0.70;;
65613;SDS011;52283;49.292;10.572;2023-04-24T11:57:53;3.00;;;0.98;;
65613;SDS011;52283;49.292;10.572;2023-04-24T12:00:21;1.13;;;0.73;;
65613;SDS011;52283;49.292;10.572;2023-04-24T12:02:49;4.63;;;1.00;;
65613;SDS011;52283;49.292;10.572;2023-04-24T12:05:20;0.65;;;0.60;;
65613;SDS011;52283;49.292;10.572;2023-04-24T12:10:13;0.75;;;0.75;;
65613;SDS011;52283;49.292;10.572;2023-04-24T12:12:40;2.00;;;1.83;;
65613;SDS011;52283;49.292;10.572;2023-04-24T12:15:07;0.70;;;0.70;;
65613;SDS011;52283;49.292;10.572;2023-04-24T12:17:34;1.77;;;1.63;;
65613;SDS011;52283;49.292;10.572;2023-04-24T12:20:02;1.98;;;1.40;;
65613;SDS011;52283;49.292;10.572;2023-04-24T12:22:43;2.28;;;1.30;;
65613;SDS011;52283;49.292;10.572;2023-04-24T12:25:11;1.95;;;1.20;;
65613;SDS011;52283;49.292;10.572;2023-04-24T12:27:38;1.80;;;1.52;;
65613;SDS011;52283;49.292;10.572;2023-04-24T12:30:05;2.45;;;1.05;;
65613;SDS011;52283;49.292;10.572;2023-04-24T12:35:07;2.35;;;1.20;;
65613;SDS011;52283;49.292;10.572;2023-04-24T12:37:34;1.75;;;1.20;;
65613;SDS011;52283;49.292;10.572;2023-04-24T12:40:03;1.00;;;0.90;;
65613;SDS011;52283;49.292;10.572;2023-04-24T12:42:32;0.98;;;0.90;;
65613;SDS011;52283;49.292;10.572;2023-04-24T12:45:00;0.98;;;0.93;;
65613;SDS011;52283;49.292;10.572;2023-04-24T12:47:29;1.05;;;1.00;;
65613;SDS011;52283;49.292;10.572;2023-04-24T12:49:56;1.40;;;1.30;;
65613;SDS011;52283;49.292;10.572;2023-04-24T12:52:23;2.25;;;1.30;;
65613;SDS011;52283;49.292;10.572;2023-04-24T12:54:50;1.88;;;1.00;;
65613;SDS011;52283;49.292;10.572;2023-04-24T12:57:20;3.47;;;1.48;;
65613;SDS011;52283;49.292;10.572;2023-04-24T12:59:47;2.13;;;1.10;;
65613;SDS011;52283;49.292;10.572;2023-04-24T13:02:13;1.30;;;1.20;;
65613;SDS011;52283;49.292;10.572;2023-04-24T13:04:42;4.70;;;2.55;;
65613;SDS011;52283;49.292;10.572;2023-04-24T13:07:09;1.50;;;1.40;;
65613;SDS011;52283;49.292;10.572;2023-04-24T13:09:36;1.58;;;1.48;;
65613;SDS011;52283;49.292;10.572;2023-04-24T13:12:02;1.70;;;1.20;;
65613;SDS011;52283;49.292;10.572;2023-04-24T13:14:31;1.75;;;1.50;;
65613;SDS011;52283;49.292;10.572;2023-04-24T13:16:58;1.95;;;1.77;;
65613;SDS011;52283;49.292;10.572;2023-04-24T13:19:25;2.80;;;1.75;;
65613;SDS011;52283;49.292;10.572;2023-04-24T13:21:53;1.67;;;1.58;;
65613;SDS011;52283;49.292;10.572;2023-04-24T13:24:21;4.10;;;1.60;;
65613;SDS011;52283;49.292;10.572;2023-04-24T13:26:49;4.45;;;2.97;;
65613;SDS011;52283;49.292;10.572;2023-04-24T13:29:16;2.72;;;2.10;;
65613;SDS011;52283;49.292;10.572;2023-04-24T13:31:44;2.72;;;1.95;;
65613;SDS011;52283;49.292;10.572;2023-04-24T13:34:12;5.18;;;1.30;;
65613;SDS011;52283;49.292;10.572;2023-04-24T13:36:38;1.70;;;1.60;;
65613;SDS011;52283;49.292;10.572;2023-04-24T13:39:05;2.90;;;2.17;;
65613;SDS011;52283;49.292;10.572;2023-04-24T13:41:32;1.65;;;1.17;;
65613;SDS011;52283;49.292;10.572;2023-04-24T13:43:59;1.63;;;1.52;;
65613;SDS011;52283;49.292;10.572;2023-04-24T13:46:25;3.47;;;1.55;;
65613;SDS011;52283;49.292;10.572;2023-04-24T13:48:53;1.75;;;1.30;;
65613;SDS011;52283;49.292;10.572;2023-04-24T13:51:20;3.28;;;1.95;;
65613;SDS011;52283;49.292;10.572;2023-04-24T13:53:46;1.85;;;1.65;;
65613;SDS011;52283;49.292;10.572;2023-04-24T13:56:13;2.53;;;1.58;;
65613;SDS011;52283;49.292;10.572;2023-04-24T13:58:39;3.17;;;2.22;;
65613;SDS011;52283;49.292;10.572;2023-04-24T14:01:06;2.67;;;1.88;;
65613;SDS011;52283;49.292;10.572;2023-04-24T14:03:32;2.63;;;2.08;;
65613;SDS011;52283;49.292;10.572;2023-04-24T14:06:00;1.83;;;1.73;;
65613;SDS011;52283;49.292;10.572;2023-04-24T14:08:27;2.45;;;2.00;;
65613;SDS011;52283;49.292;10.572;2023-04-24T14:10:54;3.05;;;1.63;;
65613;SDS011;52283;49.292;10.572;2023-04-24T14:13:20;5.20;;;2.72;;
65613;SDS011;52283;49.292;10.572;2023-04-24T14:15:47;2.55;;;2.13;;
65613;SDS011;52283;49.292;10.572;2023-04-24T14:18:13;3.63;;;2.47;;
65613;SDS011;52283;49.292;10.572;2023-04-24T14:20:40;2.75;;;1.60;;
65613;SDS011;52283;49.292;10.572;2023-04-24T14:23:08;3.47;;;3.03;;
65613;SDS011;52283;49.292;10.572;2023-04-24T14:25:34;3.88;;;2.83;;
65613;SDS011;52283;49.292;10.572;2023-04-24T14:28:01;3.13;;;2.42;;
65613;SDS011;52283;49.292;10.572;2023-04-24T14:30:27;5.00;;;2.95;;
65613;SDS011;52283;49.292;10.572;2023-04-24T14:32:54;3.58;;;3.05;;
65613;SDS011;52283;49.292;10.572;2023-04-24T14:35:20;4.05;;;2.97;;
65613;SDS011;52283;49.292;10.572;2023-04-24T14:37:47;3.47;;;2.08;;
65613;SDS011;52283;49.292;10.572;2023-04-24T14:40:16;6.13;;;3.08;;
65613;SDS011;52283;49.292;10.572;2023-04-24T14:42:42;4.28;;;3.88;;
65613;SDS011;52283;49.292;10.572;2023-04-24T14:45:09;2.20;;;2.00;;